Ride Results

M.E.E.R (07-09-2019)
Ride distance: 84.0 km

Outcomes - M.E.E.R (07-09-2019)
Division No. of Entries Retired / DNE Completed Withdrawn Ineligible V/O Percentage Completed
HW 2 - 2 - - - 100.00%
MW 10 - 10 - - - 100.00%
LW 9 - 9 - - - 100.00%
JN 6 - 6 - - - 100.00%
Totals 27 - 27 - - - 100.00%
Results - M.E.E.R (07-09-2019)
No. Rider Horse Place Time Leg Speeds Total
Km/Hr
H/R bpm
Heavyweight
171 Craig Wall Sierra Lodge Elysium Gold 1 (BC) 7:23:13 11.9, 10.8 11.37 44, 49, 58 (Avg:53)
323 Alissa Jeffrey Lou Lou 2 8:13:25 10.4, 10.0 10.21 44, 44, 51 (Avg:47)
Middleweight
101 Wendy Rand Shayelle Dixie 1 (BC) 5:22:11 16.9, 14.5 15.64 41, 47, 45 (Avg:46)
114 Tara Nicklason Wongawol Legend 2 5:29:44 15.2, 15.3 15.29 43, 47, 58 (Avg:52)
300 Raelene Smith Acaciavej Silk'n Velvet 2 5:29:44 15.2, 15.3 15.29 43, 40, 52 (Avg:46)
80 Noel Lockhart Lockleigh Park Turbulence 4 5:31:05 15.0, 15.3 15.22 41, 38, 46 (Avg:42)
92 Blaine Astell Kiss Of Fame 5 6:52:20 11.9, 12.5 12.22 38, 49, 53 (Avg:51)
50 Joanne Wright Rivergum Windchime 6 7:18:24 12.0, 11.0 11.50 41, 48, 49 (Avg:48)
339 Lara Verdouw Awarran Park Shining Aura 7 7:48:17 11.9, 9.8 10.76 38, 46, 59 (Avg:52)
330 Sarah Spencer Anderton Park Jonah Hex 8 7:59:07 10.1, 10.8 10.52 36, 37, 45 (Avg:41)
165 Danielle Taylor Denim 9 8:05:48 10.3, 10.3 10.37 50, 52, 60 (Avg:56)
29 Grace Huxtable Malricia Narah 10 8:13:21 10.4, 10.0 10.22 43, 47, 52 (Avg:49)
Lightweight
90 Angela Hawks Arinya Park Indira 1 5:26:11 15.0, 15.9 15.45 43, 48, 50 (Avg:49)
150 Emily Shadbolt Pine Gully Jetfire 1 (BC) 5:26:11 16.4, 14.5 15.45 40, 46, 45 (Avg:45)
113 Kirstie Lockhart Razara Momentum 3 5:30:59 15.0, 15.3 15.23 42, 46, 51 (Avg:48)
154 Sarah Parker Arabec Prince of Thieves 4 6:06:44 14.8, 12.7 13.74 35, 49, 49 (Avg:49)
253 Kelly Woodhouse Yondover Ridge Bee 5 6:29:26 14.1, 11.9 12.94 34, 44, 55 (Avg:49)
54 Brooke McKenna Miss Mika 6 7:23:10 11.9, 10.8 11.37 41, 45, 58 (Avg:51)
218 Yvonne Downes Ennovyar Deep Affection 7 7:48:51 11.4, 10.1 10.75 39, 42, 52 (Avg:47)
125 Brooke Brown-Cordell Sandstorm Desire 8 8:05:43 10.3, 10.3 10.38 39, 42, 59 (Avg:50)
100 Trish Smith Beaucheval Akhiran 9 8:30:25 11.8, 8.4 9.87 31, 46, 55 (Avg:50)
Junior
284 Abbey Ayers Yondover Ridge Lumpy 1 (BC) 6:06:48 14.8, 12.7 13.74 43, 45, 52 (Avg:48)
306 Jessica Goulding Beer Street Riversong 2 6:53:57 13.1, 11.3 12.18 55, 43, 49 (Avg:46)
220 Millanna Bignell Corryone Rose of Ky 3 7:25:35 10.1, 12.8 11.31 44, 45, 52 (Avg:48)
30 Matilda Rockliff Kalody Park Chase 4 7:48:24 10.0, 11.5 10.76 43, 46, 49 (Avg:47)
331 Bella-Grace Bass Bar-K Buddy 5 7:55:30 10.1, 11.0 10.60 40, 44, 50 (Avg:47)
203 Porcha Stafford Follydown Mystify 6 7:59:02 10.5, 10.4 10.52 43, 40, 49 (Avg:44)